Spring Valley, Wisconsin
Current Conditions -  °F | °C
As of 12:35 PM on Saturday 20 Dec 2014 (Local Time) from KLUM Reporting Station
Haze Haze  
Wind Chill: 28°   Ceiling: 1500
Heat Index: 32°   Visibility: 5mi
Dew Point: 26°   Wind: 5mph
Humidity: 79%   Direction: 160°SSE
Pressure: 30.17"   Gusts: NA
Location:  44.85°N, 92.24°W
Report Text: KLUM 201835Z AUTO 16004KT 5SM HZ OVC015 00/M03 A3017 RMK AO2 T00021031
Loading
Personal Weather Stations






























Interactive Weather Map New forecast layout! Learn more

10-Day Weather Forecast

Advertisements
Track Severe Weather on mobile